sensor_id;sensor_type;location;lat;lon;timestamp;pressure;altitude;pressure_sealevel;temperature
15062;BMP180;7630;50.306;8.566;2024-02-21T00:01:01;98595.00;;;10.40
15062;BMP180;7630;50.306;8.566;2024-02-21T00:05:02;98589.00;;;10.30
15062;BMP180;7630;50.306;8.566;2024-02-21T00:09:03;98595.00;;;10.80
15062;BMP180;7630;50.306;8.566;2024-02-21T00:13:05;98596.00;;;10.80
15062;BMP180;7630;50.306;8.566;2024-02-21T00:17:06;98586.00;;;10.90
15062;BMP180;7630;50.306;8.566;2024-02-21T00:21:09;98560.00;;;10.20
15062;BMP180;7630;50.306;8.566;2024-02-21T00:25:10;98558.00;;;10.30
15062;BMP180;7630;50.306;8.566;2024-02-21T00:29:11;98551.00;;;10.20
15062;BMP180;7630;50.306;8.566;2024-02-21T00:33:13;98537.00;;;10.40
15062;BMP180;7630;50.306;8.566;2024-02-21T00:37:15;98530.00;;;9.90
15062;BMP180;7630;50.306;8.566;2024-02-21T00:41:16;98541.00;;;10.10
15062;BMP180;7630;50.306;8.566;2024-02-21T00:45:17;98524.00;;;10.40
15062;BMP180;7630;50.306;8.566;2024-02-21T00:49:18;98529.00;;;10.90
15062;BMP180;7630;50.306;8.566;2024-02-21T00:53:19;98545.00;;;11.30
15062;BMP180;7630;50.306;8.566;2024-02-21T00:57:20;98548.00;;;11.20
15062;BMP180;7630;50.306;8.566;2024-02-21T01:01:24;98562.00;;;10.40
15062;BMP180;7630;50.306;8.566;2024-02-21T01:05:26;98554.00;;;10.60
15062;BMP180;7630;50.306;8.566;2024-02-21T01:09:29;98567.00;;;10.60
15062;BMP180;7630;50.306;8.566;2024-02-21T01:13:30;98554.00;;;9.80
15062;BMP180;7630;50.306;8.566;2024-02-21T01:17:31;98548.00;;;10.40
15062;BMP180;7630;50.306;8.566;2024-02-21T01:21:32;98544.00;;;9.80
15062;BMP180;7630;50.306;8.566;2024-02-21T01:25:33;98545.00;;;10.60
15062;BMP180;7630;50.306;8.566;2024-02-21T01:29:34;98537.00;;;9.70
15062;BMP180;7630;50.306;8.566;2024-02-21T01:33:35;98514.00;;;9.10
15062;BMP180;7630;50.306;8.566;2024-02-21T01:37:37;98518.00;;;9.60
15062;BMP180;7630;50.306;8.566;2024-02-21T01:41:38;98504.00;;;8.50
15062;BMP180;7630;50.306;8.566;2024-02-21T01:45:39;98501.00;;;9.50
15062;BMP180;7630;50.306;8.566;2024-02-21T01:49:41;98503.00;;;9.70
15062;BMP180;7630;50.306;8.566;2024-02-21T01:53:43;98494.00;;;9.00
15062;BMP180;7630;50.306;8.566;2024-02-21T01:57:45;98497.00;;;9.30
15062;BMP180;7630;50.306;8.566;2024-02-21T02:01:47;98496.00;;;9.20
15062;BMP180;7630;50.306;8.566;2024-02-21T02:05:50;98479.00;;;9.80
15062;BMP180;7630;50.306;8.566;2024-02-21T02:09:51;98261.00;;;10.40
15062;BMP180;7630;50.306;8.566;2024-02-21T02:13:53;98485.00;;;10.60
15062;BMP180;7630;50.306;8.566;2024-02-21T02:17:55;98479.00;;;9.60
15062;BMP180;7630;50.306;8.566;2024-02-21T02:22:00;98463.00;;;11.10
15062;BMP180;7630;50.306;8.566;2024-02-21T02:26:01;98452.00;;;11.40
15062;BMP180;7630;50.306;8.566;2024-02-21T02:30:03;98450.00;;;11.50
15062;BMP180;7630;50.306;8.566;2024-02-21T02:34:04;98452.00;;;11.20
15062;BMP180;7630;50.306;8.566;2024-02-21T02:38:06;98449.00;;;10.30
15062;BMP180;7630;50.306;8.566;2024-02-21T02:42:07;98443.00;;;10.70
15062;BMP180;7630;50.306;8.566;2024-02-21T02:46:09;98444.00;;;10.40
15062;BMP180;7630;50.306;8.566;2024-02-21T02:50:10;98429.00;;;10.90
15062;BMP180;7630;50.306;8.566;2024-02-21T02:54:11;98410.00;;;10.60
15062;BMP180;7630;50.306;8.566;2024-02-21T02:58:13;98433.00;;;10.40
15062;BMP180;7630;50.306;8.566;2024-02-21T03:02:14;98431.00;;;9.90
15062;BMP180;7630;50.306;8.566;2024-02-21T03:06:15;98418.00;;;10.40
15062;BMP180;7630;50.306;8.566;2024-02-21T03:10:16;98407.00;;;10.20
15062;BMP180;7630;50.306;8.566;2024-02-21T03:14:19;98397.00;;;10.70
15062;BMP180;7630;50.306;8.566;2024-02-21T03:18:20;98383.00;;;10.00
15062;BMP180;7630;50.306;8.566;2024-02-21T03:22:22;98383.00;;;9.90
15062;BMP180;7630;50.306;8.566;2024-02-21T03:26:23;98373.00;;;10.70
15062;BMP180;7630;50.306;8.566;2024-02-21T03:30:24;98363.00;;;10.60
15062;BMP180;7630;50.306;8.566;2024-02-21T03:34:25;98357.00;;;10.50
15062;BMP180;7630;50.306;8.566;2024-02-21T03:38:26;98348.00;;;10.50
15062;BMP180;7630;50.306;8.566;2024-02-21T03:42:28;98342.00;;;9.90
15062;BMP180;7630;50.306;8.566;2024-02-21T03:46:30;98358.00;;;9.50
15062;BMP180;7630;50.306;8.566;2024-02-21T03:50:32;98365.00;;;10.10
15062;BMP180;7630;50.306;8.566;2024-02-21T03:54:34;98372.00;;;10.50
15062;BMP180;7630;50.306;8.566;2024-02-21T03:58:35;98386.00;;;10.60
15062;BMP180;7630;50.306;8.566;2024-02-21T04:02:36;98361.00;;;10.30
15062;BMP180;7630;50.306;8.566;2024-02-21T04:06:48;98366.00;;;10.00
15062;BMP180;7630;50.306;8.566;2024-02-21T04:10:42;98366.00;;;10.10
15062;BMP180;7630;50.306;8.566;2024-02-21T04:14:43;98374.00;;;10.00
15062;BMP180;7630;50.306;8.566;2024-02-21T04:18:46;98362.00;;;9.60
15062;BMP180;7630;50.306;8.566;2024-02-21T04:22:47;98334.00;;;9.30
15062;BMP180;7630;50.306;8.566;2024-02-21T04:26:48;98318.00;;;9.70
15062;BMP180;7630;50.306;8.566;2024-02-21T04:30:50;98335.00;;;10.60
15062;BMP180;7630;50.306;8.566;2024-02-21T04:34:51;98329.00;;;10.10
15062;BMP180;7630;50.306;8.566;2024-02-21T04:38:52;98330.00;;;10.30
15062;BMP180;7630;50.306;8.566;2024-02-21T04:42:54;98338.00;;;10.30
15062;BMP180;7630;50.306;8.566;2024-02-21T04:46:55;98339.00;;;10.30
15062;BMP180;7630;50.306;8.566;2024-02-21T04:50:56;98331.00;;;10.40
15062;BMP180;7630;50.306;8.566;2024-02-21T04:54:57;98329.00;;;11.00
15062;BMP180;7630;50.306;8.566;2024-02-21T04:58:59;98313.00;;;11.40
15062;BMP180;7630;50.306;8.566;2024-02-21T05:03:00;98312.00;;;11.30
15062;BMP180;7630;50.306;8.566;2024-02-21T05:07:01;98319.00;;;11.60
15062;BMP180;7630;50.306;8.566;2024-02-21T05:11:03;98319.00;;;11.40
15062;BMP180;7630;50.306;8.566;2024-02-21T05:15:05;98322.00;;;11.10
15062;BMP180;7630;50.306;8.566;2024-02-21T05:19:06;98329.00;;;10.80
15062;BMP180;7630;50.306;8.566;2024-02-21T05:23:08;98333.00;;;11.30
15062;BMP180;7630;50.306;8.566;2024-02-21T05:27:09;98333.00;;;11.50
15062;BMP180;7630;50.306;8.566;2024-02-21T05:31:10;98322.00;;;10.90
15062;BMP180;7630;50.306;8.566;2024-02-21T05:35:11;98319.00;;;11.50
15062;BMP180;7630;50.306;8.566;2024-02-21T05:39:13;98313.00;;;11.70
15062;BMP180;7630;50.306;8.566;2024-02-21T05:43:15;98303.00;;;11.20
15062;BMP180;7630;50.306;8.566;2024-02-21T05:47:16;98296.00;;;11.20
15062;BMP180;7630;50.306;8.566;2024-02-21T05:51:18;98288.00;;;10.60
15062;BMP180;7630;50.306;8.566;2024-02-21T05:55:19;98271.00;;;10.50
15062;BMP180;7630;50.306;8.566;2024-02-21T05:59:20;98263.00;;;10.40
15062;BMP180;7630;50.306;8.566;2024-02-21T06:03:21;98253.00;;;10.60
15062;BMP180;7630;50.306;8.566;2024-02-21T06:07:22;98245.00;;;9.60
15062;BMP180;7630;50.306;8.566;2024-02-21T06:11:23;98237.00;;;9.30
15062;BMP180;7630;50.306;8.566;2024-02-21T06:15:25;98235.00;;;9.40
15062;BMP180;7630;50.306;8.566;2024-02-21T06:19:26;98241.00;;;9.50
15062;BMP180;7630;50.306;8.566;2024-02-21T06:23:27;98243.00;;;9.40
15062;BMP180;7630;50.306;8.566;2024-02-21T06:27:28;98258.00;;;9.90
15062;BMP180;7630;50.306;8.566;2024-02-21T06:31:30;98256.00;;;10.10
15062;BMP180;7630;50.306;8.566;2024-02-21T06:35:32;98270.00;;;10.70
15062;BMP180;7630;50.306;8.566;2024-02-21T06:39:34;98244.00;;;10.80
15062;BMP180;7630;50.306;8.566;2024-02-21T06:43:37;98243.00;;;10.60
15062;BMP180;7630;50.306;8.566;2024-02-21T06:47:38;98240.00;;;10.60
15062;BMP180;7630;50.306;8.566;2024-02-21T06:51:40;98245.00;;;10.30
15062;BMP180;7630;50.306;8.566;2024-02-21T06:55:41;98255.00;;;10.10
15062;BMP180;7630;50.306;8.566;2024-02-21T06:59:42;98256.00;;;10.70
15062;BMP180;7630;50.306;8.566;2024-02-21T07:03:43;98257.00;;;10.40
15062;BMP180;7630;50.306;8.566;2024-02-21T07:07:44;98254.00;;;10.90
15062;BMP180;7630;50.306;8.566;2024-02-21T07:11:46;98254.00;;;11.00
15062;BMP180;7630;50.306;8.566;2024-02-21T07:15:48;98248.00;;;11.30
15062;BMP180;7630;50.306;8.566;2024-02-21T07:19:49;98245.00;;;11.40
15062;BMP180;7630;50.306;8.566;2024-02-21T07:23:50;98246.00;;;11.20
15062;BMP180;7630;50.306;8.566;2024-02-21T07:27:51;98252.00;;;11.70
15062;BMP180;7630;50.306;8.566;2024-02-21T07:31:52;98252.00;;;11.90
15062;BMP180;7630;50.306;8.566;2024-02-21T07:35:54;98261.00;;;11.60
15062;BMP180;7630;50.306;8.566;2024-02-21T07:39:55;98253.00;;;11.30
15062;BMP180;7630;50.306;8.566;2024-02-21T07:43:57;98255.00;;;10.60
15062;BMP180;7630;50.306;8.566;2024-02-21T07:47:58;98255.00;;;10.70
15062;BMP180;7630;50.306;8.566;2024-02-21T07:52:03;98257.00;;;11.20
15062;BMP180;7630;50.306;8.566;2024-02-21T07:56:04;98258.00;;;10.40
15062;BMP180;7630;50.306;8.566;2024-02-21T08:00:06;98247.00;;;9.70
15062;BMP180;7630;50.306;8.566;2024-02-21T08:04:09;98251.00;;;10.90
15062;BMP180;7630;50.306;8.566;2024-02-21T08:08:11;98191.00;;;9.70
15062;BMP180;7630;50.306;8.566;2024-02-21T08:12:13;98237.00;;;11.10
15062;BMP180;7630;50.306;8.566;2024-02-21T08:16:14;98230.00;;;9.30
15062;BMP180;7630;50.306;8.566;2024-02-21T08:20:16;98229.00;;;10.00
15062;BMP180;7630;50.306;8.566;2024-02-21T08:24:17;98215.00;;;10.20
15062;BMP180;7630;50.306;8.566;2024-02-21T08:28:18;98217.00;;;10.00
15062;BMP180;7630;50.306;8.566;2024-02-21T08:32:19;98213.00;;;9.80
15062;BMP180;7630;50.306;8.566;2024-02-21T08:36:21;98217.00;;;10.10
15062;BMP180;7630;50.306;8.566;2024-02-21T08:40:22;98206.00;;;9.90
15062;BMP180;7630;50.306;8.566;2024-02-21T08:44:23;98205.00;;;10.70
15062;BMP180;7630;50.306;8.566;2024-02-21T08:48:28;98197.00;;;10.10
15062;BMP180;7630;50.306;8.566;2024-02-21T08:52:30;98199.00;;;10.70
15062;BMP180;7630;50.306;8.566;2024-02-21T08:56:31;98188.00;;;10.80
15062;BMP180;7630;50.306;8.566;2024-02-21T09:00:33;98180.00;;;10.90
15062;BMP180;7630;50.306;8.566;2024-02-21T09:04:34;98173.00;;;10.50
15062;BMP180;7630;50.306;8.566;2024-02-21T09:08:35;98164.00;;;10.70
15062;BMP180;7630;50.306;8.566;2024-02-21T09:12:37;98165.00;;;10.30
15062;BMP180;7630;50.306;8.566;2024-02-21T09:16:38;98156.00;;;10.30
15062;BMP180;7630;50.306;8.566;2024-02-21T09:20:39;98151.00;;;11.00
15062;BMP180;7630;50.306;8.566;2024-02-21T09:24:40;98155.00;;;10.80
15062;BMP180;7630;50.306;8.566;2024-02-21T09:28:42;98149.00;;;10.90
15062;BMP180;7630;50.306;8.566;2024-02-21T09:32:44;98151.00;;;11.60
15062;BMP180;7630;50.306;8.566;2024-02-21T09:36:45;98147.00;;;11.80
15062;BMP180;7630;50.306;8.566;2024-02-21T09:40:46;98151.00;;;11.70
15062;BMP180;7630;50.306;8.566;2024-02-21T09:44:48;98136.00;;;12.00
15062;BMP180;7630;50.306;8.566;2024-02-21T09:53:24;98128.00;;;11.90
15062;BMP180;7630;50.306;8.566;2024-02-21T09:57:26;98125.00;;;12.20
15062;BMP180;7630;50.306;8.566;2024-02-21T10:01:27;98122.00;;;12.90
15062;BMP180;7630;50.306;8.566;2024-02-21T10:05:31;98126.00;;;12.70
15062;BMP180;7630;50.306;8.566;2024-02-21T10:09:32;98120.00;;;13.80
15062;BMP180;7630;50.306;8.566;2024-02-21T10:13:35;98120.00;;;13.20
15062;BMP180;7630;50.306;8.566;2024-02-21T10:17:36;98105.00;;;13.70
15062;BMP180;7630;50.306;8.566;2024-02-21T10:21:37;98095.00;;;13.80
15062;BMP180;7630;50.306;8.566;2024-02-21T10:25:38;98084.00;;;12.10
15062;BMP180;7630;50.306;8.566;2024-02-21T10:29:41;98084.00;;;12.50
15062;BMP180;7630;50.306;8.566;2024-02-21T10:33:42;98084.00;;;12.90
15062;BMP180;7630;50.306;8.566;2024-02-21T10:37:44;98077.00;;;12.30
15062;BMP180;7630;50.306;8.566;2024-02-21T10:41:46;98061.00;;;12.10
15062;BMP180;7630;50.306;8.566;2024-02-21T10:45:47;98065.00;;;11.90
15062;BMP180;7630;50.306;8.566;2024-02-21T10:49:56;98068.00;;;12.30
15062;BMP180;7630;50.306;8.566;2024-02-21T10:58:03;98057.00;;;12.50
15062;BMP180;7630;50.306;8.566;2024-02-21T11:02:04;98050.00;;;13.00
15062;BMP180;7630;50.306;8.566;2024-02-21T11:06:07;98052.00;;;13.60
15062;BMP180;7630;50.306;8.566;2024-02-21T11:10:24;98041.00;;;13.40
15062;BMP180;7630;50.306;8.566;2024-02-21T11:14:27;98027.00;;;13.20
15062;BMP180;7630;50.306;8.566;2024-02-21T11:18:29;98007.00;;;13.00
15062;BMP180;7630;50.306;8.566;2024-02-21T11:22:40;97998.00;;;12.90
15062;BMP180;7630;50.306;8.566;2024-02-21T11:26:37;97995.00;;;12.30
15062;BMP180;7630;50.306;8.566;2024-02-21T11:30:39;97992.00;;;12.50
15062;BMP180;7630;50.306;8.566;2024-02-21T11:34:41;97985.00;;;13.60
15062;BMP180;7630;50.306;8.566;2024-02-21T11:38:42;97953.00;;;13.40
15062;BMP180;7630;50.306;8.566;2024-02-21T11:42:43;97965.00;;;13.30
15062;BMP180;7630;50.306;8.566;2024-02-21T11:46:44;97950.00;;;13.50
15062;BMP180;7630;50.306;8.566;2024-02-21T11:50:57;97947.00;;;12.70
15062;BMP180;7630;50.306;8.566;2024-02-21T11:54:58;97937.00;;;12.50
15062;BMP180;7630;50.306;8.566;2024-02-21T11:59:01;97943.00;;;13.40
15062;BMP180;7630;50.306;8.566;2024-02-21T12:03:04;97938.00;;;13.00
15062;BMP180;7630;50.306;8.566;2024-02-21T12:07:06;97923.00;;;13.80
15062;BMP180;7630;50.306;8.566;2024-02-21T12:11:19;97966.00;;;13.00
15062;BMP180;7630;50.306;8.566;2024-02-21T12:15:21;97903.00;;;12.50
15062;BMP180;7630;50.306;8.566;2024-02-21T12:19:23;97901.00;;;12.90
15062;BMP180;7630;50.306;8.566;2024-02-21T12:23:28;97884.00;;;12.30
15062;BMP180;7630;50.306;8.566;2024-02-21T12:27:30;97885.00;;;13.30
15062;BMP180;7630;50.306;8.566;2024-02-21T12:31:32;97870.00;;;13.60
15062;BMP180;7630;50.306;8.566;2024-02-21T12:35:33;97855.00;;;12.80
15062;BMP180;7630;50.306;8.566;2024-02-21T12:39:35;97846.00;;;12.50
15062;BMP180;7630;50.306;8.566;2024-02-21T12:43:37;97839.00;;;12.70
15062;BMP180;7630;50.306;8.566;2024-02-21T12:47:39;97843.00;;;12.90
15062;BMP180;7630;50.306;8.566;2024-02-21T12:51:43;97834.00;;;12.10
15062;BMP180;7630;50.306;8.566;2024-02-21T12:55:45;97836.00;;;12.20
15062;BMP180;7630;50.306;8.566;2024-02-21T12:59:47;97844.00;;;11.60
15062;BMP180;7630;50.306;8.566;2024-02-21T13:03:48;97838.00;;;12.10
15062;BMP180;7630;50.306;8.566;2024-02-21T13:07:49;97818.00;;;13.30
15062;BMP180;7630;50.306;8.566;2024-02-21T13:11:51;97802.00;;;12.30
15062;BMP180;7630;50.306;8.566;2024-02-21T13:15:52;97807.00;;;12.40
15062;BMP180;7630;50.306;8.566;2024-02-21T13:19:53;97799.00;;;12.20
15062;BMP180;7630;50.306;8.566;2024-02-21T13:23:54;97780.00;;;12.10
15062;BMP180;7630;50.306;8.566;2024-02-21T13:27:57;97757.00;;;11.90
15062;BMP180;7630;50.306;8.566;2024-02-21T13:31:58;97761.00;;;12.90
15062;BMP180;7630;50.306;8.566;2024-02-21T13:35:59;97751.00;;;12.70
15062;BMP180;7630;50.306;8.566;2024-02-21T13:40:03;97749.00;;;12.30
15062;BMP180;7630;50.306;8.566;2024-02-21T13:44:05;97729.00;;;11.90
15062;BMP180;7630;50.306;8.566;2024-02-21T13:48:06;97730.00;;;12.90
15062;BMP180;7630;50.306;8.566;2024-02-21T13:52:09;97706.00;;;11.10
15062;BMP180;7630;50.306;8.566;2024-02-21T13:56:11;97700.00;;;12.40
15062;BMP180;7630;50.306;8.566;2024-02-21T14:00:13;97696.00;;;12.40
15062;BMP180;7630;50.306;8.566;2024-02-21T14:04:14;97683.00;;;13.00
15062;BMP180;7630;50.306;8.566;2024-02-21T14:08:15;97677.00;;;11.90
15062;BMP180;7630;50.306;8.566;2024-02-21T14:12:16;97674.00;;;12.30
15062;BMP180;7630;50.306;8.566;2024-02-21T14:16:20;97669.00;;;11.00
15062;BMP180;7630;50.306;8.566;2024-02-21T14:20:21;97657.00;;;11.20
15062;BMP180;7630;50.306;8.566;2024-02-21T14:24:23;97651.00;;;10.90
15062;BMP180;7630;50.306;8.566;2024-02-21T14:28:24;97647.00;;;10.60
15062;BMP180;7630;50.306;8.566;2024-02-21T14:32:25;97645.00;;;10.30
15062;BMP180;7630;50.306;8.566;2024-02-21T14:36:27;97655.00;;;10.70
15062;BMP180;7630;50.306;8.566;2024-02-21T14:40:28;97613.00;;;10.30
15062;BMP180;7630;50.306;8.566;2024-02-21T14:44:30;97601.00;;;10.60
15062;BMP180;7630;50.306;8.566;2024-02-21T14:48:32;97581.00;;;10.70
15062;BMP180;7630;50.306;8.566;2024-02-21T14:52:33;97591.00;;;11.30
15062;BMP180;7630;50.306;8.566;2024-02-21T14:56:35;97578.00;;;11.20
15062;BMP180;7630;50.306;8.566;2024-02-21T15:00:36;97559.00;;;11.30
15062;BMP180;7630;50.306;8.566;2024-02-21T15:04:38;97558.00;;;10.70
15062;BMP180;7630;50.306;8.566;2024-02-21T15:08:39;97554.00;;;10.60
15062;BMP180;7630;50.306;8.566;2024-02-21T15:12:40;97528.00;;;10.70
15062;BMP180;7630;50.306;8.566;2024-02-21T15:16:41;97535.00;;;12.20
15062;BMP180;7630;50.306;8.566;2024-02-21T15:20:43;97526.00;;;10.90
15062;BMP180;7630;50.306;8.566;2024-02-21T15:24:44;97515.00;;;11.00
15062;BMP180;7630;50.306;8.566;2024-02-21T15:28:49;97498.00;;;11.30
15062;BMP180;7630;50.306;8.566;2024-02-21T15:32:50;97490.00;;;11.50
15062;BMP180;7630;50.306;8.566;2024-02-21T15:40:55;97466.00;;;11.00
15062;BMP180;7630;50.306;8.566;2024-02-21T15:44:57;97466.00;;;10.40
15062;BMP180;7630;50.306;8.566;2024-02-21T15:49:00;97472.00;;;11.00
15062;BMP180;7630;50.306;8.566;2024-02-21T15:53:01;97462.00;;;11.40
15062;BMP180;7630;50.306;8.566;2024-02-21T15:57:03;97463.00;;;11.70
15062;BMP180;7630;50.306;8.566;2024-02-21T16:01:07;97471.00;;;11.70
15062;BMP180;7630;50.306;8.566;2024-02-21T16:05:08;97466.00;;;12.10
15062;BMP180;7630;50.306;8.566;2024-02-21T16:09:11;97462.00;;;11.90
15062;BMP180;7630;50.306;8.566;2024-02-21T16:13:12;97449.00;;;13.10
15062;BMP180;7630;50.306;8.566;2024-02-21T16:17:13;97447.00;;;12.80
15062;BMP180;7630;50.306;8.566;2024-02-21T16:21:15;97422.00;;;12.30
15062;BMP180;7630;50.306;8.566;2024-02-21T16:25:16;97431.00;;;11.80
15062;BMP180;7630;50.306;8.566;2024-02-21T16:29:18;97418.00;;;11.60
15062;BMP180;7630;50.306;8.566;2024-02-21T16:33:19;97412.00;;;11.60
15062;BMP180;7630;50.306;8.566;2024-02-21T16:37:21;97396.00;;;11.70
15062;BMP180;7630;50.306;8.566;2024-02-21T16:41:22;97387.00;;;11.40
15062;BMP180;7630;50.306;8.566;2024-02-21T16:45:24;97381.00;;;11.40
15062;BMP180;7630;50.306;8.566;2024-02-21T16:49:25;97392.00;;;10.50
15062;BMP180;7630;50.306;8.566;2024-02-21T16:53:26;97389.00;;;11.40
15062;BMP180;7630;50.306;8.566;2024-02-21T16:57:28;97386.00;;;11.20
15062;BMP180;7630;50.306;8.566;2024-02-21T17:01:36;97374.00;;;10.90
15062;BMP180;7630;50.306;8.566;2024-02-21T17:05:41;97372.00;;;11.60
15062;BMP180;7630;50.306;8.566;2024-02-21T17:09:43;97363.00;;;12.10
15062;BMP180;7630;50.306;8.566;2024-02-21T17:13:44;97348.00;;;11.50
15062;BMP180;7630;50.306;8.566;2024-02-21T17:17:45;97338.00;;;10.80
15062;BMP180;7630;50.306;8.566;2024-02-21T17:21:46;97329.00;;;11.30
15062;BMP180;7630;50.306;8.566;2024-02-21T17:25:47;97333.00;;;10.70
15062;BMP180;7630;50.306;8.566;2024-02-21T17:29:49;97324.00;;;10.70
15062;BMP180;7630;50.306;8.566;2024-02-21T17:33:50;97321.00;;;10.10
15062;BMP180;7630;50.306;8.566;2024-02-21T17:37:51;97329.00;;;10.50
15062;BMP180;7630;50.306;8.566;2024-02-21T17:41:52;97310.00;;;11.00
15062;BMP180;7630;50.306;8.566;2024-02-21T17:45:53;97318.00;;;10.10
15062;BMP180;7630;50.306;8.566;2024-02-21T17:49:56;97307.00;;;10.40
15062;BMP180;7630;50.306;8.566;2024-02-21T17:53:57;97302.00;;;11.60
15062;BMP180;7630;50.306;8.566;2024-02-21T17:57:59;97289.00;;;11.30
15062;BMP180;7630;50.306;8.566;2024-02-21T18:02:00;97281.00;;;9.80
15062;BMP180;7630;50.306;8.566;2024-02-21T18:06:01;97291.00;;;11.50
15062;BMP180;7630;50.306;8.566;2024-02-21T18:10:05;97270.00;;;10.90
15062;BMP180;7630;50.306;8.566;2024-02-21T18:14:07;97249.00;;;11.10
15062;BMP180;7630;50.306;8.566;2024-02-21T18:18:09;97267.00;;;10.30
15062;BMP180;7630;50.306;8.566;2024-02-21T18:22:10;97274.00;;;10.50
15062;BMP180;7630;50.306;8.566;2024-02-21T18:26:11;97276.00;;;10.10
15062;BMP180;7630;50.306;8.566;2024-02-21T18:30:12;97262.00;;;10.50
15062;BMP180;7630;50.306;8.566;2024-02-21T18:34:13;97265.00;;;10.90
15062;BMP180;7630;50.306;8.566;2024-02-21T18:38:15;97238.00;;;10.60
15062;BMP180;7630;50.306;8.566;2024-02-21T18:42:16;97241.00;;;10.60
15062;BMP180;7630;50.306;8.566;2024-02-21T18:46:17;97249.00;;;9.90
15062;BMP180;7630;50.306;8.566;2024-02-21T18:50:18;97247.00;;;10.00
15062;BMP180;7630;50.306;8.566;2024-02-21T18:54:19;97234.00;;;9.80
15062;BMP180;7630;50.306;8.566;2024-02-21T18:58:20;97248.00;;;10.10
15062;BMP180;7630;50.306;8.566;2024-02-21T19:02:22;97241.00;;;10.20
15062;BMP180;7630;50.306;8.566;2024-02-21T19:06:23;97237.00;;;10.50
15062;BMP180;7630;50.306;8.566;2024-02-21T19:10:24;97209.00;;;9.50
15062;BMP180;7630;50.306;8.566;2024-02-21T19:14:25;97196.00;;;9.90
15062;BMP180;7630;50.306;8.566;2024-02-21T19:18:26;97186.00;;;9.10
15062;BMP180;7630;50.306;8.566;2024-02-21T19:22:27;97166.00;;;9.30
15062;BMP180;7630;50.306;8.566;2024-02-21T19:26:31;97171.00;;;9.50
15062;BMP180;7630;50.306;8.566;2024-02-21T19:30:32;97176.00;;;9.10
15062;BMP180;7630;50.306;8.566;2024-02-21T19:34:33;97168.00;;;9.10
15062;BMP180;7630;50.306;8.566;2024-02-21T19:38:35;97171.00;;;8.70
15062;BMP180;7630;50.306;8.566;2024-02-21T19:42:36;97160.00;;;8.90
15062;BMP180;7630;50.306;8.566;2024-02-21T19:46:38;97161.00;;;9.00
15062;BMP180;7630;50.306;8.566;2024-02-21T19:50:40;97206.00;;;8.50
15062;BMP180;7630;50.306;8.566;2024-02-21T19:54:41;97137.00;;;8.90
15062;BMP180;7630;50.306;8.566;2024-02-21T19:58:43;97118.00;;;8.90
15062;BMP180;7630;50.306;8.566;2024-02-21T20:02:45;97099.00;;;9.00
15062;BMP180;7630;50.306;8.566;2024-02-21T20:06:46;97096.00;;;9.10
15062;BMP180;7630;50.306;8.566;2024-02-21T20:10:47;97095.00;;;8.80
15062;BMP180;7630;50.306;8.566;2024-02-21T20:14:49;97072.00;;;8.50
15062;BMP180;7630;50.306;8.566;2024-02-21T20:18:51;97057.00;;;9.30
15062;BMP180;7630;50.306;8.566;2024-02-21T20:22:53;97057.00;;;8.50
15062;BMP180;7630;50.306;8.566;2024-02-21T20:26:54;97058.00;;;8.20
15062;BMP180;7630;50.306;8.566;2024-02-21T20:30:56;97030.00;;;8.30
15062;BMP180;7630;50.306;8.566;2024-02-21T20:34:57;97013.00;;;8.00
15062;BMP180;7630;50.306;8.566;2024-02-21T20:38:58;96999.00;;;8.50
15062;BMP180;7630;50.306;8.566;2024-02-21T20:42:59;96984.00;;;8.60
15062;BMP180;7630;50.306;8.566;2024-02-21T20:47:02;96966.00;;;7.90
15062;BMP180;7630;50.306;8.566;2024-02-21T20:51:04;96957.00;;;7.90
15062;BMP180;7630;50.306;8.566;2024-02-21T20:55:05;96935.00;;;7.30
15062;BMP180;7630;50.306;8.566;2024-02-21T20:59:07;96924.00;;;7.90
15062;BMP180;7630;50.306;8.566;2024-02-21T21:03:08;96898.00;;;7.00
15062;BMP180;7630;50.306;8.566;2024-02-21T21:07:11;96901.00;;;7.70
15062;BMP180;7630;50.306;8.566;2024-02-21T21:11:12;96894.00;;;7.60
15062;BMP180;7630;50.306;8.566;2024-02-21T21:15:13;96909.00;;;7.20
15062;BMP180;7630;50.306;8.566;2024-02-21T21:19:14;96916.00;;;7.60
15062;BMP180;7630;50.306;8.566;2024-02-21T21:23:16;96920.00;;;7.70
15062;BMP180;7630;50.306;8.566;2024-02-21T21:27:17;96918.00;;;7.50
15062;BMP180;7630;50.306;8.566;2024-02-21T21:31:20;96899.00;;;7.60
15062;BMP180;7630;50.306;8.566;2024-02-21T21:35:21;96884.00;;;7.50
15062;BMP180;7630;50.306;8.566;2024-02-21T21:39:23;96884.00;;;7.70
15062;BMP180;7630;50.306;8.566;2024-02-21T21:43:26;96891.00;;;7.50
15062;BMP180;7630;50.306;8.566;2024-02-21T21:47:27;96883.00;;;8.10
15062;BMP180;7630;50.306;8.566;2024-02-21T21:51:28;96877.00;;;7.70
15062;BMP180;7630;50.306;8.566;2024-02-21T21:55:30;96873.00;;;8.00
15062;BMP180;7630;50.306;8.566;2024-02-21T21:59:32;96864.00;;;8.80
15062;BMP180;7630;50.306;8.566;2024-02-21T22:03:33;96875.00;;;8.00
15062;BMP180;7630;50.306;8.566;2024-02-21T22:07:34;96851.00;;;8.10
15062;BMP180;7630;50.306;8.566;2024-02-21T22:11:36;96850.00;;;8.00
15062;BMP180;7630;50.306;8.566;2024-02-21T22:15:37;96839.00;;;8.40
15062;BMP180;7630;50.306;8.566;2024-02-21T22:19:38;96841.00;;;8.60
15062;BMP180;7630;50.306;8.566;2024-02-21T22:23:39;96838.00;;;8.70
15062;BMP180;7630;50.306;8.566;2024-02-21T22:27:42;96825.00;;;8.30
15062;BMP180;7630;50.306;8.566;2024-02-21T22:31:43;96807.00;;;8.40
15062;BMP180;7630;50.306;8.566;2024-02-21T22:35:45;96809.00;;;8.30
15062;BMP180;7630;50.306;8.566;2024-02-21T22:39:46;96798.00;;;7.90
15062;BMP180;7630;50.306;8.566;2024-02-21T22:43:48;96785.00;;;9.00
15062;BMP180;7630;50.306;8.566;2024-02-21T22:47:49;96769.00;;;8.00
15062;BMP180;7630;50.306;8.566;2024-02-21T22:51:51;96770.00;;;8.50
15062;BMP180;7630;50.306;8.566;2024-02-21T22:55:52;96764.00;;;8.00
15062;BMP180;7630;50.306;8.566;2024-02-21T22:59:53;96743.00;;;7.80
15062;BMP180;7630;50.306;8.566;2024-02-21T23:03:54;96753.00;;;8.10
15062;BMP180;7630;50.306;8.566;2024-02-21T23:07:55;96730.00;;;8.50
15062;BMP180;7630;50.306;8.566;2024-02-21T23:11:56;96727.00;;;7.90
15062;BMP180;7630;50.306;8.566;2024-02-21T23:15:58;96721.00;;;8.80
15062;BMP180;7630;50.306;8.566;2024-02-21T23:19:59;96716.00;;;8.30
15062;BMP180;7630;50.306;8.566;2024-02-21T23:24:01;96709.00;;;8.40
15062;BMP180;7630;50.306;8.566;2024-02-21T23:28:02;96701.00;;;8.30
15062;BMP180;7630;50.306;8.566;2024-02-21T23:32:04;96704.00;;;8.50
15062;BMP180;7630;50.306;8.566;2024-02-21T23:36:06;96694.00;;;8.60
15062;BMP180;7630;50.306;8.566;2024-02-21T23:40:08;96677.00;;;8.10
15062;BMP180;7630;50.306;8.566;2024-02-21T23:44:11;96679.00;;;8.60
15062;BMP180;7630;50.306;8.566;2024-02-21T23:48:12;96662.00;;;9.20
15062;BMP180;7630;50.306;8.566;2024-02-21T23:52:14;96661.00;;;8.60